createdAt,value
2022-12-27T00:00:43.730Z,6.33
2022-12-27T00:03:11.165Z,6.16
2022-12-27T00:05:38.548Z,6.29
2022-12-27T00:08:05.954Z,6.24
2022-12-27T00:10:37.270Z,6.21
2022-12-27T00:13:06.226Z,6.34
2022-12-27T00:15:34.067Z,6.31
2022-12-27T00:18:03.322Z,6.36
2022-12-27T00:20:30.679Z,6.17
2022-12-27T00:23:00.614Z,6.38
2022-12-27T00:25:27.999Z,6.33
2022-12-27T00:27:55.376Z,6.34
2022-12-27T00:30:22.764Z,6.21
2022-12-27T00:32:50.125Z,6.27
2022-12-27T00:35:19.137Z,6.16
2022-12-27T00:37:46.448Z,6.16
2022-12-27T00:40:16.218Z,6.12
2022-12-27T00:42:43.533Z,6.13
2022-12-27T00:45:11.966Z,6.27
2022-12-27T00:47:40.166Z,6.09
2022-12-27T00:50:07.894Z,6.11
2022-12-27T00:52:36.560Z,6.25
2022-12-27T00:55:04.305Z,6.07
2022-12-27T00:57:31.621Z,5.90
2022-12-27T01:00:00.567Z,6.06
2022-12-27T01:02:29.662Z,6.22
2022-12-27T01:04:57.372Z,6.12
2022-12-27T01:07:25.225Z,6.06
2022-12-27T01:09:53.913Z,5.83
2022-12-27T01:12:21.314Z,5.83
2022-12-27T01:14:48.642Z,5.90
2022-12-27T01:17:16.308Z,5.80
2022-12-27T01:19:43.684Z,5.79
2022-12-27T01:22:12.353Z,5.90
2022-12-27T01:24:39.699Z,5.79
2022-12-27T01:27:10.119Z,5.66
2022-12-27T01:29:37.467Z,5.81
2022-12-27T01:32:04.942Z,5.82
2022-12-27T01:34:32.339Z,5.65
2022-12-27T01:36:59.718Z,5.88
2022-12-27T01:39:27.113Z,5.74
2022-12-27T01:42:12.062Z,5.66
2022-12-27T01:44:57.022Z,5.68
2022-12-27T01:47:32.448Z,5.86
2022-12-27T01:50:06.838Z,5.72
2022-12-27T01:52:37.398Z,5.72
2022-12-27T01:55:20.087Z,5.63
2022-12-27T01:57:48.134Z,5.78
2022-12-27T02:00:17.349Z,5.83
2022-12-27T02:02:44.823Z,5.75
2022-12-27T02:05:17.332Z,5.69
2022-12-27T02:07:55.630Z,5.67
2022-12-27T02:10:22.994Z,5.75
2022-12-27T02:12:50.356Z,5.69
2022-12-27T02:15:19.191Z,5.86
2022-12-27T02:17:46.586Z,5.81
2022-12-27T02:20:17.121Z,5.88
2022-12-27T02:23:40.289Z,5.68
2022-12-27T02:26:28.955Z,5.57
2022-12-27T02:29:16.389Z,5.60
2022-12-27T02:31:50.083Z,5.71
2022-12-27T02:34:20.457Z,5.44
2022-12-27T02:36:47.929Z,5.62
2022-12-27T02:39:17.847Z,5.87
2022-12-27T02:42:03.308Z,5.61
2022-12-27T02:44:49.967Z,5.54
2022-12-27T02:47:37.339Z,5.59
2022-12-27T02:50:23.541Z,5.75
2022-12-27T02:53:04.620Z,5.67
2022-12-27T02:56:06.416Z,5.63
2022-12-27T02:58:38.907Z,5.51
2022-12-27T03:01:32.446Z,5.77
2022-12-27T03:04:11.324Z,5.68
2022-12-27T03:06:54.337Z,5.68
2022-12-27T03:09:53.329Z,5.58
2022-12-27T03:12:45.521Z,5.68
2022-12-27T03:15:42.352Z,5.66
2022-12-27T03:18:14.874Z,5.61
2022-12-27T03:21:01.271Z,5.57
2022-12-27T03:23:47.005Z,5.58
2022-12-27T03:26:15.818Z,5.62
2022-12-27T03:29:02.194Z,5.50
2022-12-27T03:31:49.374Z,5.50
2022-12-27T03:34:33.145Z,5.51
2022-12-27T03:37:22.877Z,5.55
2022-12-27T03:39:55.512Z,5.61
2022-12-27T03:42:42.527Z,5.61
2022-12-27T03:45:11.019Z,5.61
2022-12-27T03:47:41.174Z,5.68
2022-12-27T03:50:11.975Z,5.67
2022-12-27T03:52:42.797Z,5.66
2022-12-27T03:55:10.869Z,5.56
2022-12-27T03:57:38.550Z,5.81
2022-12-27T04:00:07.213Z,5.71
2022-12-27T04:02:34.708Z,5.66
2022-12-27T04:05:02.139Z,5.58
2022-12-27T04:07:30.843Z,5.77
2022-12-27T04:10:15.583Z,5.66
2022-12-27T04:13:00.365Z,5.79
2022-12-27T04:15:45.583Z,5.51
2022-12-27T04:18:30.442Z,5.60
2022-12-27T04:21:15.622Z,5.43
2022-12-27T04:24:02.137Z,5.42
2022-12-27T04:26:47.074Z,5.53
2022-12-27T04:29:31.858Z,5.52
2022-12-27T04:32:16.642Z,5.52
2022-12-27T04:34:44.304Z,5.60
2022-12-27T04:37:14.031Z,5.57
2022-12-27T04:40:02.790Z,5.66
2022-12-27T04:42:47.794Z,5.48
2022-12-27T04:45:32.473Z,5.58
2022-12-27T04:48:17.668Z,5.74
2022-12-27T04:51:02.990Z,5.51
2022-12-27T04:53:48.722Z,5.65
2022-12-27T04:56:17.428Z,5.61
2022-12-27T04:59:04.923Z,5.55
2022-12-27T05:01:50.177Z,5.65
2022-12-27T05:04:17.677Z,5.59
2022-12-27T05:06:45.091Z,5.58
2022-12-27T05:09:30.239Z,5.67
2022-12-27T05:12:15.891Z,5.52
2022-12-27T05:14:43.242Z,5.48
2022-12-27T05:17:10.628Z,5.63
2022-12-27T05:19:38.003Z,5.67
2022-12-27T05:22:22.740Z,5.67
2022-12-27T05:25:07.423Z,5.55
2022-12-27T05:27:36.145Z,5.62
2022-12-27T05:30:03.517Z,5.59
2022-12-27T05:32:30.898Z,5.57
2022-12-27T05:34:58.271Z,5.72
2022-12-27T05:37:25.666Z,5.67
2022-12-27T05:39:53.051Z,5.56
2022-12-27T05:42:20.409Z,5.65
2022-12-27T05:44:49.118Z,5.85
2022-12-27T05:47:16.489Z,5.71
2022-12-27T05:49:43.866Z,5.62
2022-12-27T05:52:11.201Z,5.69
2022-12-27T05:54:38.552Z,5.74
2022-12-27T05:57:05.914Z,5.75
2022-12-27T05:59:33.263Z,5.75
2022-12-27T06:02:03.702Z,5.72
2022-12-27T06:04:31.209Z,5.79
2022-12-27T06:06:59.134Z,5.74
2022-12-27T06:09:26.509Z,5.65
2022-12-27T06:11:53.851Z,5.72
2022-12-27T06:14:21.281Z,5.64
2022-12-27T06:16:48.641Z,5.66
2022-12-27T06:19:17.378Z,5.55
2022-12-27T06:21:44.720Z,5.66
2022-12-27T06:24:12.065Z,5.69
2022-12-27T06:26:39.456Z,5.71
2022-12-27T06:29:06.874Z,5.75
2022-12-27T06:31:36.416Z,5.76
2022-12-27T06:34:04.082Z,5.86
2022-12-27T06:36:32.933Z,5.89
2022-12-27T06:39:00.821Z,5.80
2022-12-27T06:41:28.172Z,5.74
2022-12-27T06:43:57.972Z,5.72
2022-12-27T06:46:25.887Z,5.76
2022-12-27T06:48:53.710Z,5.73
2022-12-27T06:51:21.910Z,5.82
2022-12-27T06:53:51.034Z,5.76
2022-12-27T06:56:19.612Z,5.68
2022-12-27T06:58:50.003Z,5.61
2022-12-27T07:01:19.868Z,5.60
2022-12-27T07:03:49.718Z,5.75
2022-12-27T07:06:17.163Z,5.71
2022-12-27T07:08:44.480Z,5.79
2022-12-27T07:11:14.234Z,5.67
2022-12-27T07:13:43.811Z,5.72
2022-12-27T07:16:13.644Z,5.65
2022-12-27T07:18:41.249Z,5.82
2022-12-27T07:21:09.190Z,5.82
2022-12-27T07:23:37.302Z,5.87
2022-12-27T07:26:06.446Z,5.76
2022-12-27T07:28:35.170Z,5.77
2022-12-27T07:31:07.939Z,5.77
2022-12-27T07:33:35.739Z,5.80
2022-12-27T07:36:03.832Z,5.88
2022-12-27T07:38:34.002Z,5.83
2022-12-27T07:41:01.835Z,5.74
2022-12-27T07:43:30.149Z,5.83
2022-12-27T07:46:05.304Z,5.73
2022-12-27T07:48:34.357Z,5.84
2022-12-27T07:51:01.717Z,5.92
2022-12-27T07:53:29.052Z,5.86
2022-12-27T07:55:56.452Z,5.87
2022-12-27T07:58:23.882Z,5.81
2022-12-27T08:00:52.336Z,5.85
2022-12-27T08:03:22.061Z,5.78
2022-12-27T08:05:52.521Z,5.73
2022-12-27T08:08:21.873Z,5.83
2022-12-27T08:10:49.356Z,5.80
2022-12-27T08:13:16.847Z,5.76
2022-12-27T08:15:44.532Z,5.93
2022-12-27T08:18:11.879Z,5.83
2022-12-27T08:20:40.571Z,5.88
2022-12-27T08:23:07.894Z,5.87
2022-12-27T08:25:35.263Z,5.77
2022-12-27T08:28:06.147Z,5.84
2022-12-27T08:30:33.581Z,5.80
2022-12-27T08:33:01.606Z,5.95
2022-12-27T08:38:17.654Z,5.80
2022-12-27T08:40:46.153Z,5.79
2022-12-27T08:43:14.175Z,5.85
2022-12-27T08:45:41.564Z,5.88
2022-12-27T08:48:09.169Z,5.90
2022-12-27T08:50:36.605Z,5.89
2022-12-27T08:53:05.563Z,5.87
2022-12-27T08:55:34.881Z,5.86
2022-12-27T08:58:03.467Z,6.00
2022-12-27T09:00:31.199Z,5.96
2022-12-27T09:02:58.790Z,5.95
2022-12-27T09:05:27.379Z,5.98
2022-12-27T09:07:55.186Z,6.01
2022-12-27T09:10:23.522Z,6.03
2022-12-27T09:12:52.355Z,6.02
2022-12-27T09:15:19.774Z,6.04
2022-12-27T09:17:47.109Z,5.99
2022-12-27T09:20:14.468Z,6.09
2022-12-27T09:22:41.857Z,5.95
2022-12-27T09:25:09.749Z,6.05
2022-12-27T09:27:37.355Z,5.99
2022-12-27T09:30:08.170Z,5.93
2022-12-27T09:32:35.734Z,5.97
2022-12-27T09:35:03.158Z,6.06
2022-12-27T09:37:30.500Z,6.13
2022-12-27T09:39:57.911Z,6.04
2022-12-27T09:42:50.796Z,6.13
2022-12-27T09:45:21.547Z,6.14
2022-12-27T09:47:53.287Z,6.12
2022-12-27T09:50:26.109Z,6.20
2022-12-27T09:52:58.318Z,6.10
2022-12-27T09:55:35.791Z,6.17
2022-12-27T09:58:10.892Z,6.29
2022-12-27T10:00:45.901Z,6.33
2022-12-27T10:03:13.675Z,6.44
2022-12-27T10:05:43.455Z,6.38
2022-12-27T10:08:24.359Z,6.37
2022-12-27T10:10:56.771Z,6.48
2022-12-27T10:13:35.237Z,6.46
2022-12-27T10:16:12.604Z,6.45
2022-12-27T10:18:45.740Z,6.48
2022-12-27T10:21:21.471Z,6.52
2022-12-27T10:23:54.310Z,6.45
2022-12-27T10:26:22.378Z,6.51
2022-12-27T10:28:57.219Z,6.56
2022-12-27T10:31:26.832Z,6.50
2022-12-27T10:33:54.697Z,6.53
2022-12-27T10:36:24.919Z,6.66
2022-12-27T10:38:52.260Z,6.52
2022-12-27T10:41:31.119Z,6.51
2022-12-27T10:43:58.556Z,6.65
2022-12-27T10:46:32.678Z,6.63
2022-12-27T10:51:51.062Z,6.57
2022-12-27T10:54:22.274Z,6.64
2022-12-27T10:56:49.638Z,6.60
2022-12-27T10:59:18.895Z,6.69
2022-12-27T11:01:49.810Z,6.69
2022-12-27T11:04:20.933Z,6.62
2022-12-27T11:06:51.358Z,6.73
2022-12-27T11:09:27.243Z,6.66
2022-12-27T11:12:12.602Z,6.70
2022-12-27T11:14:40.020Z,6.67
2022-12-27T11:17:11.116Z,6.70
2022-12-27T11:19:41.759Z,6.74
2022-12-27T11:22:11.802Z,6.80
2022-12-27T11:24:45.705Z,6.82
2022-12-27T11:27:22.252Z,6.78
2022-12-27T11:29:49.698Z,6.82
2022-12-27T11:32:18.799Z,6.74
2022-12-27T11:34:48.920Z,6.80
2022-12-27T11:37:19.098Z,6.71
2022-12-27T11:39:48.094Z,6.77
2022-12-27T11:42:20.780Z,6.72
2022-12-27T11:44:56.339Z,6.77
2022-12-27T11:47:31.434Z,6.82
2022-12-27T11:50:06.622Z,6.76
2022-12-27T11:52:49.049Z,6.81
2022-12-27T11:55:39.868Z,6.80
2022-12-27T11:58:20.931Z,6.84
2022-12-27T12:00:55.636Z,6.96
2022-12-27T12:03:45.767Z,6.91
2022-12-27T12:06:16.979Z,6.96
2022-12-27T12:08:58.275Z,6.91
2022-12-27T12:11:35.225Z,6.87
2022-12-27T12:14:24.961Z,6.86
2022-12-27T12:17:12.950Z,6.92
2022-12-27T12:19:54.621Z,6.95
2022-12-27T12:22:30.936Z,6.98
2022-12-27T12:25:28.761Z,6.98
2022-12-27T12:28:38.799Z,6.82
2022-12-27T12:31:14.986Z,6.97
2022-12-27T12:33:55.882Z,6.87
2022-12-27T12:36:52.111Z,6.99
2022-12-27T12:39:26.174Z,6.93
2022-12-27T12:42:19.430Z,6.97
2022-12-27T12:45:06.568Z,7.09
2022-12-27T12:47:59.135Z,6.97
2022-12-27T12:50:34.660Z,7.12
2022-12-27T12:53:23.472Z,7.08
2022-12-27T12:55:58.680Z,7.05
2022-12-27T12:58:39.820Z,7.09
2022-12-27T13:01:18.090Z,7.15
2022-12-27T13:03:54.541Z,7.15
2022-12-27T13:06:40.917Z,7.15
2022-12-27T13:09:17.915Z,7.13
2022-12-27T13:11:53.901Z,7.04
2022-12-27T13:14:47.149Z,6.99
2022-12-27T13:17:17.450Z,7.05
2022-12-27T13:19:57.251Z,6.97
2022-12-27T13:22:32.709Z,6.92
2022-12-27T13:25:11.172Z,7.00
2022-12-27T13:27:43.382Z,6.96
2022-12-27T13:30:19.976Z,6.84
2022-12-27T13:33:00.702Z,6.92
2022-12-27T13:35:35.975Z,6.90
2022-12-27T13:38:20.413Z,6.89
2022-12-27T13:41:03.987Z,6.91
2022-12-27T13:43:50.976Z,6.82
2022-12-27T13:46:42.406Z,6.90
2022-12-27T13:49:24.203Z,6.92
2022-12-27T13:51:52.313Z,6.92
2022-12-27T13:54:43.059Z,6.92
2022-12-27T13:57:23.838Z,6.86
2022-12-27T14:00:01.376Z,6.82
2022-12-27T14:02:45.318Z,6.81
2022-12-27T14:05:38.231Z,6.91
2022-12-27T14:08:12.904Z,6.82
2022-12-27T14:10:44.265Z,6.82
2022-12-27T14:13:14.185Z,6.93
2022-12-27T14:16:01.055Z,6.96
2022-12-27T14:18:38.790Z,6.81
2022-12-27T14:21:16.227Z,6.98
2022-12-27T14:24:00.166Z,6.73
2022-12-27T14:27:18.213Z,6.93
2022-12-27T14:30:06.134Z,6.86
2022-12-27T14:32:47.394Z,6.86
2022-12-27T14:35:31.643Z,6.85
2022-12-27T14:38:24.301Z,6.76
2022-12-27T14:41:05.068Z,6.89
2022-12-27T14:43:59.164Z,6.76
2022-12-27T14:46:52.924Z,6.72
2022-12-27T14:50:14.094Z,6.68
2022-12-27T14:53:05.274Z,6.71
2022-12-27T14:55:43.048Z,6.84
2022-12-27T14:58:20.336Z,6.59
2022-12-27T15:01:03.206Z,6.76
2022-12-27T15:03:45.929Z,6.86
2022-12-27T15:06:16.968Z,6.60
2022-12-27T15:08:53.370Z,6.65
2022-12-27T15:11:45.547Z,6.58
2022-12-27T15:14:26.703Z,6.74
2022-12-27T15:17:00.148Z,6.73
2022-12-27T15:19:42.559Z,6.76
2022-12-27T15:22:13.310Z,6.82
2022-12-27T15:24:49.376Z,6.69
2022-12-27T15:27:21.840Z,6.72
2022-12-27T15:30:03.193Z,6.85
2022-12-27T15:32:36.985Z,6.74
2022-12-27T15:35:20.246Z,6.85
2022-12-27T15:38:07.954Z,6.69
2022-12-27T15:40:47.647Z,6.72
2022-12-27T15:43:28.105Z,6.78
2022-12-27T15:46:07.885Z,6.67
2022-12-27T15:48:59.139Z,6.58
2022-12-27T15:51:33.065Z,6.63
2022-12-27T15:54:09.587Z,6.71
2022-12-27T15:56:44.074Z,6.71
2022-12-27T15:59:38.776Z,6.57
2022-12-27T16:02:24.780Z,6.56
2022-12-27T16:04:53.974Z,6.64
2022-12-27T16:07:41.685Z,6.74
2022-12-27T16:10:42.741Z,6.68
2022-12-27T16:13:34.341Z,6.71
2022-12-27T16:16:06.258Z,6.73
2022-12-27T16:18:43.954Z,6.83
2022-12-27T16:21:16.129Z,6.59
2022-12-27T16:23:53.008Z,6.45
2022-12-27T16:26:22.641Z,6.33
2022-12-27T16:28:55.963Z,6.45
2022-12-27T16:31:24.740Z,6.33
2022-12-27T16:33:53.276Z,6.38
2022-12-27T16:36:24.399Z,6.49
2022-12-27T16:39:03.727Z,6.47
2022-12-27T16:41:52.978Z,6.50
2022-12-27T16:44:29.702Z,6.46
2022-12-27T16:47:07.355Z,6.49
2022-12-27T16:49:46.377Z,6.62
2022-12-27T16:52:31.054Z,6.53
2022-12-27T16:55:06.917Z,6.43
2022-12-27T16:57:40.382Z,6.35
2022-12-27T17:00:38.443Z,6.30
2022-12-27T17:03:29.919Z,6.38
2022-12-27T17:06:30.681Z,6.22
2022-12-27T17:08:46.172Z,6.29
2022-12-27T17:11:26.201Z,6.29
2022-12-27T17:13:56.895Z,6.31
2022-12-27T17:16:26.206Z,6.23
2022-12-27T17:18:56.057Z,6.47
2022-12-27T17:21:30.092Z,6.30
2022-12-27T17:24:00.010Z,6.26
2022-12-27T17:27:07.147Z,6.27
2022-12-27T17:30:00.079Z,6.27
2022-12-27T17:32:43.200Z,6.16
2022-12-27T17:35:15.339Z,6.19
2022-12-27T17:37:48.955Z,6.27
2022-12-27T17:40:27.391Z,6.32
2022-12-27T17:43:22.606Z,6.33
2022-12-27T17:45:54.739Z,6.29
2022-12-27T17:48:26.841Z,6.33
2022-12-27T17:50:55.823Z,6.23
2022-12-27T17:53:41.233Z,6.47
2022-12-27T17:56:37.548Z,6.29
2022-12-27T17:59:14.078Z,6.42
2022-12-27T18:01:46.082Z,6.44
2022-12-27T18:04:20.490Z,6.37
2022-12-27T18:06:48.019Z,6.44
2022-12-27T18:09:24.244Z,6.56
2022-12-27T18:11:51.599Z,6.47
2022-12-27T18:14:18.948Z,6.41
2022-12-27T18:16:48.299Z,6.27
2022-12-27T18:19:19.677Z,6.36
2022-12-27T18:21:56.179Z,6.23
2022-12-27T18:24:27.803Z,6.28
2022-12-27T18:27:03.666Z,6.35
2022-12-27T18:29:31.176Z,6.29
2022-12-27T18:32:03.771Z,6.41
2022-12-27T18:34:35.366Z,6.33
2022-12-27T18:37:04.280Z,6.42
2022-12-27T18:39:33.389Z,6.31
2022-12-27T18:42:03.523Z,6.40
2022-12-27T18:44:33.847Z,6.42
2022-12-27T18:47:04.061Z,6.35
2022-12-27T18:49:33.564Z,6.32
2022-12-27T18:52:03.150Z,6.26
2022-12-27T18:54:35.614Z,6.24
2022-12-27T18:57:05.036Z,6.25
2022-12-27T18:59:33.519Z,6.33
2022-12-27T19:02:04.269Z,6.46
2022-12-27T19:04:32.904Z,6.38
2022-12-27T19:07:08.011Z,6.40
2022-12-27T19:09:38.107Z,6.28
2022-12-27T19:12:07.925Z,6.43
2022-12-27T19:14:38.937Z,6.30
2022-12-27T19:17:11.183Z,6.25
2022-12-27T19:19:38.825Z,6.17
2022-12-27T19:22:32.230Z,6.26
2022-12-27T19:25:00.198Z,6.25
2022-12-27T19:27:27.611Z,6.21
2022-12-27T19:29:54.935Z,6.32
2022-12-27T19:32:28.379Z,6.16
2022-12-27T19:34:59.214Z,6.16
2022-12-27T19:37:26.938Z,6.10
2022-12-27T19:39:54.352Z,6.07
2022-12-27T19:42:26.892Z,6.14
2022-12-27T19:44:54.233Z,5.98
2022-12-27T19:47:21.582Z,6.07
2022-12-27T19:49:50.342Z,6.05
2022-12-27T19:52:20.116Z,6.08
2022-12-27T19:54:48.021Z,5.95
2022-12-27T19:57:15.563Z,6.07
2022-12-27T19:59:42.924Z,5.96
2022-12-27T20:02:10.856Z,5.99
2022-12-27T20:04:38.406Z,5.85
2022-12-27T20:07:07.187Z,5.95
2022-12-27T20:09:34.504Z,5.92
2022-12-27T20:12:04.437Z,5.98
2022-12-27T20:14:31.766Z,5.98
2022-12-27T20:16:59.123Z,5.98
2022-12-27T20:19:26.500Z,6.03
2022-12-27T20:21:53.812Z,6.07
2022-12-27T20:24:23.062Z,6.10
2022-12-27T20:26:50.474Z,5.97
2022-12-27T20:29:17.841Z,5.90
2022-12-27T20:31:48.343Z,5.99
2022-12-27T20:34:15.701Z,5.92
2022-12-27T20:36:44.526Z,5.83
2022-12-27T20:39:12.831Z,5.84
2022-12-27T20:41:41.486Z,5.96
2022-12-27T20:44:08.921Z,5.98
2022-12-27T20:46:36.255Z,6.02
2022-12-27T20:49:03.619Z,5.92
2022-12-27T20:51:33.177Z,5.87
2022-12-27T20:56:54.982Z,5.89
2022-12-27T20:59:22.399Z,5.95
2022-12-27T21:01:56.613Z,5.90
2022-12-27T21:04:24.531Z,5.86
2022-12-27T21:06:52.044Z,5.83
2022-12-27T21:09:19.737Z,5.94
2022-12-27T21:11:47.056Z,5.89
2022-12-27T21:14:18.316Z,5.84
2022-12-27T21:16:48.892Z,5.83
2022-12-27T21:19:16.285Z,5.92
2022-12-27T21:21:44.581Z,5.85
2022-12-27T21:24:14.229Z,5.92
2022-12-27T21:26:43.789Z,5.88
2022-12-27T21:29:12.240Z,5.75
2022-12-27T21:31:43.401Z,5.79
2022-12-27T21:34:10.746Z,5.79
2022-12-27T21:36:38.699Z,5.86
2022-12-27T21:39:07.676Z,5.81
2022-12-27T21:41:36.561Z,5.83
2022-12-27T21:44:05.316Z,5.89
2022-12-27T21:46:34.572Z,5.86
2022-12-27T21:49:04.917Z,5.89
2022-12-27T21:51:33.212Z,5.88
2022-12-27T21:54:00.919Z,5.91
2022-12-27T21:56:28.740Z,5.96
2022-12-27T21:58:56.533Z,5.87
2022-12-27T22:01:27.960Z,5.86
2022-12-27T22:03:58.830Z,5.96
2022-12-27T22:06:28.984Z,6.00
2022-12-27T22:08:58.541Z,5.91
2022-12-27T22:11:27.238Z,5.95
2022-12-27T22:13:55.175Z,5.90
2022-12-27T22:16:25.814Z,5.94
2022-12-27T22:18:55.864Z,5.89
2022-12-27T22:21:26.820Z,5.91
2022-12-27T22:23:56.685Z,5.91
2022-12-27T22:26:26.405Z,5.89
2022-12-27T22:28:53.765Z,5.85
2022-12-27T22:31:22.641Z,5.93
2022-12-27T22:33:50.930Z,5.86
2022-12-27T22:36:19.850Z,5.95
2022-12-27T22:38:49.753Z,5.90
2022-12-27T22:41:20.623Z,5.95
2022-12-27T22:43:51.209Z,5.94
2022-12-27T22:46:19.367Z,5.96
2022-12-27T22:48:49.977Z,6.00
2022-12-27T22:51:18.650Z,6.02
2022-12-27T22:53:45.981Z,6.00
2022-12-27T22:56:14.933Z,5.99
2022-12-27T22:58:44.069Z,6.10
2022-12-27T23:01:12.772Z,6.13
2022-12-27T23:03:40.294Z,6.10
2022-12-27T23:06:08.031Z,6.16
2022-12-27T23:08:36.782Z,6.24
2022-12-27T23:11:05.069Z,6.24
2022-12-27T23:13:32.577Z,6.26
2022-12-27T23:16:03.323Z,6.32
2022-12-27T23:18:31.213Z,6.32
2022-12-27T23:21:20.222Z,6.37
2022-12-27T23:23:46.374Z,6.32
2022-12-27T23:26:16.187Z,6.37
2022-12-27T23:28:45.530Z,6.34
2022-12-27T23:31:14.899Z,6.41
2022-12-27T23:33:43.233Z,6.43
2022-12-27T23:36:11.623Z,6.46
2022-12-27T23:38:41.500Z,6.46
2022-12-27T23:41:09.635Z,6.49
2022-12-27T23:43:55.260Z,6.43
2022-12-27T23:46:27.205Z,6.47
2022-12-27T23:48:55.158Z,6.48
2022-12-27T23:51:22.723Z,6.41
2022-12-27T23:53:50.074Z,6.49
2022-12-27T23:56:19.241Z,6.40
2022-12-27T23:58:47.433Z,6.43
